Time;durP1;ratioP1;P1;durP2;ratioP2;P2;SDS_P1;SDS_P2;PMS_P1;PMS_P2;Temp;Humidity;BMP_temperature;BMP_pressure;BME280_temperature;BME280_humidity;BME280_pressure;Samples;Min_cycle;Max_cycle;Signal;HPM_P1;HPM_P2
2023/03/19 00:00:19;;;;;;;2.43;2.30;;;;;;;10.93;71.75;95075.34;4393832;32;20184;-58
2023/03/19 00:02:49;;;;;;;2.03;1.90;;;;;;;10.90;71.89;95076.72;4388732;32;20172;-58
2023/03/19 00:05:15;;;;;;;2.77;2.30;;;;;;;10.72;72.58;95077.66;4356336;32;20185;-58
2023/03/19 00:07:42;;;;;;;2.70;2.50;;;;;;;10.72;72.62;95088.28;4373818;32;20299;-58
2023/03/19 00:10:09;;;;;;;2.33;2.13;;;;;;;10.86;72.30;95081.06;4391017;32;20188;-58
2023/03/19 00:12:34;;;;;;;2.53;2.43;;;;;;;10.87;71.99;95082.63;4389827;32;20248;-58
2023/03/19 00:15:00;;;;;;;5.37;2.60;;;;;;;10.83;72.37;95071.03;4391253;32;20235;-58
2023/03/19 00:17:25;;;;;;;8.37;2.90;;;;;;;10.83;72.10;95080.84;4377675;32;20240;-57
2023/03/19 00:19:50;;;;;;;2.57;2.40;;;;;;;10.76;72.53;95076.00;4388027;32;20188;-58
2023/03/19 00:22:17;;;;;;;3.97;3.60;;;;;;;10.79;72.65;95093.97;4371546;32;20211;-58
2023/03/19 00:24:43;;;;;;;2.70;2.53;;;;;;;10.78;72.55;95079.13;4386860;32;20284;-58
2023/03/19 00:27:10;;;;;;;2.37;2.27;;;;;;;10.91;71.94;95077.50;4392937;32;20256;-58
2023/03/19 00:29:36;;;;;;;2.87;2.67;;;;;;;10.95;71.82;95073.94;4393621;32;20203;-58
2023/03/19 00:32:02;;;;;;;1.67;1.67;;;;;;;10.74;72.39;95070.19;4394470;32;20237;-58
2023/03/19 00:34:27;;;;;;;13.53;2.37;;;;;;;10.69;72.79;95080.91;4393816;32;20180;-58
2023/03/19 00:36:52;;;;;;;2.13;2.03;;;;;;;10.61;73.33;95084.25;4375479;32;20292;-57
2023/03/19 00:39:18;;;;;;;4.93;2.57;;;;;;;10.68;73.05;95076.69;4395545;32;20202;-58
2023/03/19 00:41:49;;;;;;;4.07;2.17;;;;;;;10.64;73.04;95083.66;4381604;32;20180;-58
2023/03/19 00:44:18;;;;;;;3.10;2.90;;;;;;;10.47;73.85;95089.59;4388492;32;20222;-58
2023/03/19 00:46:43;;;;;;;3.60;3.40;;;;;;;10.64;73.40;95086.31;4384272;32;20189;-58
2023/03/19 00:49:08;;;;;;;1.13;1.13;;;;;;;10.71;72.88;95092.00;4390959;32;20172;-58
2023/03/19 00:51:34;;;;;;;2.23;2.03;;;;;;;10.71;72.65;95094.66;4387786;32;20246;-58
2023/03/19 00:53:59;;;;;;;3.07;2.87;;;;;;;10.67;72.73;95101.66;4394027;32;20245;-58
2023/03/19 00:56:26;;;;;;;2.50;2.30;;;;;;;10.63;72.90;95100.66;4381145;32;20184;-57
2023/03/19 00:58:51;;;;;;;2.13;2.00;;;;;;;10.47;73.64;95099.44;4382020;32;20196;-58
2023/03/19 01:01:17;;;;;;;4.27;3.00;;;;;;;10.50;73.74;95089.03;4379985;32;20192;-58
2023/03/19 01:03:45;;;;;;;1.83;1.80;;;;;;;10.59;73.34;95087.25;4379810;32;20302;-58
2023/03/19 01:06:10;;;;;;;1.73;1.63;;;;;;;10.57;73.05;95091.28;4379365;32;20180;-58
2023/03/19 01:08:37;;;;;;;3.07;2.57;;;;;;;10.41;73.71;95088.12;4380022;32;20200;-58
2023/03/19 01:11:29;;;;;;;1.57;1.57;;;;;;;10.47;73.89;95088.81;4392254;32;20185;-58
2023/03/19 01:13:54;;;;;;;3.50;2.23;;;;;;;10.35;74.47;95099.16;4386142;32;20193;-50
2023/03/19 01:16:20;;;;;;;12.10;2.97;;;;;;;10.36;74.51;95092.78;4385974;32;20181;-48
2023/03/19 01:18:46;;;;;;;2.53;2.43;;;;;;;10.36;74.47;95098.09;4393431;32;20211;-49
2023/03/19 01:21:14;;;;;;;2.13;1.93;;;;;;;10.17;75.12;95092.87;4392862;32;20248;-47
2023/03/19 01:23:41;;;;;;;1.70;1.60;;;;;;;10.20;74.90;95093.06;4392433;32;20219;-49
2023/03/19 01:26:07;;;;;;;4.80;2.97;;;;;;;10.12;75.38;95098.28;4379778;32;20188;-50
2023/03/19 01:28:33;;;;;;;2.37;2.27;;;;;;;9.98;76.25;95095.59;4378520;32;20206;-52
2023/03/19 01:31:00;;;;;;;2.77;2.57;;;;;;;10.08;76.06;95092.78;4392047;32;20208;-48
2023/03/19 01:33:26;;;;;;;3.10;2.90;;;;;;;10.18;75.33;95097.09;4377598;32;20188;-50
2023/03/19 01:35:51;;;;;;;2.90;2.70;;;;;;;10.10;75.59;95100.44;4386475;32;20229;-48
2023/03/19 01:38:18;;;;;;;2.60;2.40;;;;;;;10.14;75.66;95096.91;4373357;32;20172;-50
2023/03/19 01:40:47;;;;;;;2.30;2.20;;;;;;;10.09;76.03;95109.47;4388300;32;20192;-47
2023/03/19 01:43:20;;;;;;;2.50;2.30;;;;;;;10.08;75.55;95108.66;4393512;32;20208;-50
2023/03/19 01:45:51;;;;;;;3.53;3.10;;;;;;;9.99;75.87;95115.72;4375823;32;20199;-51
2023/03/19 01:48:41;;;;;;;2.03;1.93;;;;;;;10.14;75.32;95104.84;4376352;32;20180;-51
2023/03/19 01:51:09;;;;;;;2.40;2.30;;;;;;;10.02;75.90;95098.44;4378761;32;20184;-50
2023/03/19 01:53:39;;;;;;;2.63;2.43;;;;;;;9.88;76.26;95099.25;4393210;32;20192;-50
2023/03/19 01:56:13;;;;;;;1.57;1.57;;;;;;;9.95;75.91;95099.66;4379189;32;20193;-50
2023/03/19 01:58:43;;;;;;;1.70;1.67;;;;;;;10.13;75.21;95107.78;4378576;32;20196;-52
2023/03/19 02:01:09;;;;;;;1.97;1.97;;;;;;;9.93;75.68;95101.03;4392991;32;20185;-48
2023/03/19 02:03:37;;;;;;;3.87;2.63;;;;;;;10.01;75.39;95105.63;4393247;32;20268;-51
2023/03/19 02:06:03;;;;;;;6.73;2.70;;;;;;;10.09;75.08;95098.84;4378720;32;20180;-48
2023/03/19 02:08:30;;;;;;;4.30;2.37;;;;;;;10.03;75.36;95106.13;4392692;32;20192;-51
2023/03/19 02:10:59;;;;;;;2.27;2.10;;;;;;;9.82;76.40;95102.28;4390574;32;20337;-50
2023/03/19 02:13:25;;;;;;;1.80;1.70;;;;;;;9.87;76.25;95104.84;4387652;32;20176;-52
2023/03/19 02:15:54;;;;;;;2.33;2.13;;;;;;;9.95;76.02;95104.16;4393335;32;20225;-48
2023/03/19 02:18:20;;;;;;;1.80;1.70;;;;;;;9.87;76.11;95112.78;4392869;32;20361;-52
2023/03/19 02:20:57;;;;;;;1.57;1.47;;;;;;;9.79;76.32;95116.09;4378879;32;20286;-51
2023/03/19 02:23:32;;;;;;;7.60;1.83;;;;;;;9.91;75.74;95105.81;4384319;32;20188;-57
2023/03/19 02:26:07;;;;;;;1.57;0.93;;;;;;;9.62;77.06;95104.22;4377256;32;20284;-51
2023/03/19 02:28:37;;;;;;;1.43;1.43;;;;;;;9.58;77.33;95095.28;4391269;32;20371;-51
2023/03/19 02:31:03;;;;;;;1.37;1.37;;;;;;;9.81;76.64;95098.06;4377513;32;20305;-51
2023/03/19 02:33:28;;;;;;;2.77;1.87;;;;;;;9.81;76.52;95093.53;4389687;32;20288;-52
2023/03/19 02:35:55;;;;;;;4.27;1.80;;;;;;;9.79;76.44;95095.69;4391929;32;20216;-51
2023/03/19 02:38:24;;;;;;;1.70;1.60;;;;;;;9.74;76.88;95097.69;4391172;32;20199;-49
2023/03/19 02:40:59;;;;;;;2.43;1.70;;;;;;;9.75;76.76;95092.09;4389849;32;20318;-50
2023/03/19 02:43:25;;;;;;;2.63;1.80;;;;;;;9.69;77.06;95097.75;4387068;32;20336;-50
2023/03/19 02:45:53;;;;;;;1.57;1.57;;;;;;;9.67;77.28;95102.56;4390701;32;20300;-50
2023/03/19 02:48:19;;;;;;;1.63;1.53;;;;;;;9.67;77.07;95106.00;4378365;32;20273;-53
2023/03/19 02:50:45;;;;;;;1.63;1.53;;;;;;;9.65;77.27;95111.59;4387149;32;20188;-49
2023/03/19 02:53:11;;;;;;;1.50;1.50;;;;;;;9.61;77.59;95115.09;4392631;32;20223;-50
2023/03/19 02:55:36;;;;;;;1.67;1.67;;;;;;;9.49;78.04;95118.22;4378249;32;20193;-52
2023/03/19 02:58:01;;;;;;;1.30;1.20;;;;;;;9.49;78.12;95122.75;4391954;32;20184;-51
2023/03/19 03:00:27;;;;;;;1.40;1.17;;;;;;;9.56;78.23;95117.88;4391428;32;20198;-51
2023/03/19 03:02:55;;;;;;;5.87;1.63;;;;;;;9.43;78.64;95116.72;4392697;32;20184;-58
2023/03/19 03:05:22;;;;;;;1.80;1.30;;;;;;;9.51;78.28;95115.28;4377777;32;20188;-52
2023/03/19 03:07:48;;;;;;;1.47;1.37;;;;;;;9.49;78.45;95120.88;4391084;32;20352;-53
2023/03/19 03:10:15;;;;;;;1.40;1.30;;;;;;;9.56;78.18;95129.22;4390572;32;20298;-53
2023/03/19 03:12:42;;;;;;;2.27;2.17;;;;;;;9.51;78.15;95126.66;4390906;32;20345;-53
2023/03/19 03:15:08;;;;;;;0.93;0.93;;;;;;;9.39;78.62;95133.47;4390714;32;20231;-49
2023/03/19 03:17:37;;;;;;;1.10;1.10;;;;;;;9.48;78.30;95139.69;4372134;32;20196;-50
2023/03/19 03:20:04;;;;;;;1.40;1.30;;;;;;;9.43;78.69;95139.78;4374168;32;20230;-49
2023/03/19 03:22:30;;;;;;;4.03;2.27;;;;;;;9.40;78.77;95137.69;4377843;32;20196;-48
2023/03/19 03:24:55;;;;;;;1.37;1.33;;;;;;;9.37;79.01;95135.63;4391109;32;20271;-47
2023/03/19 03:27:22;;;;;;;3.80;1.10;;;;;;;9.36;79.05;95134.84;4377169;32;20199;-50
2023/03/19 03:29:47;;;;;;;0.70;0.70;;;;;;;9.49;78.60;95133.31;4374214;32;20188;-51
2023/03/19 03:32:14;;;;;;;1.23;1.13;;;;;;;9.30;79.05;95130.72;4377946;32;20274;-51
2023/03/19 03:34:41;;;;;;;1.23;1.23;;;;;;;9.51;78.50;95125.88;4377313;32;20176;-49
2023/03/19 03:37:08;;;;;;;1.00;1.00;;;;;;;9.55;78.20;95132.97;4391439;32;20252;-50
2023/03/19 03:39:35;;;;;;;1.47;1.37;;;;;;;9.48;78.54;95137.06;4379380;32;20384;-52
2023/03/19 03:42:01;;;;;;;4.23;1.30;;;;;;;9.53;78.07;95135.12;4391229;32;20280;-49
2023/03/19 03:44:28;;;;;;;4.23;1.60;;;;;;;9.47;78.12;95138.91;4371743;32;20299;-49
2023/03/19 03:46:53;;;;;;;1.67;1.57;;;;;;;9.51;77.95;95142.56;4387774;32;20333;-54
2023/03/19 03:49:20;;;;;;;0.90;0.90;;;;;;;9.64;77.54;95146.31;4390821;32;20334;-51
2023/03/19 03:51:45;;;;;;;3.10;1.50;;;;;;;9.61;77.57;95146.87;4390753;32;20234;-58
2023/03/19 03:54:11;;;;;;;1.70;1.60;;;;;;;9.53;77.97;95148.34;4376929;32;20374;-58
2023/03/19 03:56:38;;;;;;;0.60;0.60;;;;;;;9.58;77.98;95153.53;4390570;32;20239;-58
2023/03/19 03:59:04;;;;;;;0.80;0.80;;;;;;;9.50;78.28;95150.78;4383416;32;20236;-58
2023/03/19 04:01:34;;;;;;;1.53;1.43;;;;;;;9.32;78.81;95155.06;4384423;32;20184;-58
2023/03/19 04:03:59;;;;;;;1.67;1.53;;;;;;;9.23;79.53;95154.13;4389417;32;20314;-58
2023/03/19 04:06:26;;;;;;;0.80;0.80;;;;;;;9.27;79.27;95155.13;4389453;32;20277;-58
2023/03/19 04:08:52;;;;;;;1.47;1.40;;;;;;;9.42;78.85;95156.75;4378216;32;20186;-58
2023/03/19 04:11:20;;;;;;;1.13;1.13;;;;;;;9.54;78.21;95155.22;4377210;32;20295;-57
2023/03/19 04:13:45;;;;;;;1.07;1.07;;;;;;;9.44;78.60;95162.53;4388598;32;20184;-57
2023/03/19 04:16:12;;;;;;;1.23;1.23;;;;;;;9.44;78.30;95155.38;4377637;32;20362;-57
2023/03/19 04:18:39;;;;;;;1.90;1.80;;;;;;;9.40;78.68;95153.59;4369930;32;20242;-57
2023/03/19 04:21:05;;;;;;;1.93;1.47;;;;;;;9.29;79.03;95155.63;4389878;32;20292;-57
2023/03/19 04:23:32;;;;;;;1.07;1.07;;;;;;;9.22;79.37;95160.50;4377663;32;20294;-57
2023/03/19 04:26:03;;;;;;;1.60;1.50;;;;;;;9.28;79.29;95162.00;4377214;32;20192;-57
2023/03/19 04:28:30;;;;;;;1.03;1.03;;;;;;;9.21;79.40;95166.84;4371681;32;20330;-57
2023/03/19 04:31:03;;;;;;;1.67;1.57;;;;;;;9.26;79.25;95177.37;4388887;32;20324;-57
2023/03/19 04:33:30;;;;;;;0.80;0.80;;;;;;;9.28;78.97;95173.38;4383414;32;20316;-57
2023/03/19 04:35:57;;;;;;;1.00;1.00;;;;;;;9.13;79.60;95175.47;4363019;32;20199;-57
2023/03/19 04:38:28;;;;;;;0.83;0.83;;;;;;;9.12;79.95;95173.88;4391326;32;20317;-57
2023/03/19 04:40:55;;;;;;;1.57;1.43;;;;;;;9.33;78.87;95177.81;4386065;32;20299;-56
2023/03/19 04:43:22;;;;;;;4.63;1.90;;;;;;;9.29;78.96;95182.09;4392480;32;20284;-57
2023/03/19 04:45:47;;;;;;;1.00;1.00;;;;;;;9.43;78.43;95172.34;4373679;32;20279;-57
2023/03/19 04:48:13;;;;;;;0.87;0.87;;;;;;;9.44;78.34;95175.78;4385158;32;20416;-57
2023/03/19 04:50:39;;;;;;;1.33;1.30;;;;;;;9.38;78.68;95184.84;4391061;32;20188;-57
2023/03/19 04:53:05;;;;;;;1.10;1.10;;;;;;;9.47;78.27;95178.63;4374230;32;20226;-57
2023/03/19 04:55:31;;;;;;;3.23;1.73;;;;;;;9.40;78.26;95177.41;4391660;32;20283;-57
2023/03/19 04:57:57;;;;;;;1.17;1.17;;;;;;;9.53;77.65;95182.00;4376849;32;20205;-57
2023/03/19 05:00:22;;;;;;;1.80;1.70;;;;;;;9.60;77.40;95187.69;4371838;32;20226;-57
2023/03/19 05:02:49;;;;;;;0.90;0.90;;;;;;;9.57;77.48;95186.41;4384289;32;20228;-57
2023/03/19 05:05:14;;;;;;;0.93;0.93;;;;;;;9.50;77.86;95186.00;4387114;32;20210;-57
2023/03/19 05:07:41;;;;;;;0.70;0.70;;;;;;;9.37;78.59;95184.06;4385350;32;20364;-57
2023/03/19 05:10:07;;;;;;;0.93;0.93;;;;;;;9.41;78.40;95192.22;4357941;32;20196;-57
2023/03/19 05:12:33;;;;;;;1.07;1.07;;;;;;;9.47;78.42;95188.44;4377685;32;20210;-57
2023/03/19 05:14:58;;;;;;;1.10;1.10;;;;;;;9.42;78.45;95189.28;4392294;32;20268;-57
2023/03/19 05:17:24;;;;;;;1.23;1.23;;;;;;;9.54;77.95;95194.16;4379077;32;20231;-57
2023/03/19 05:19:51;;;;;;;1.33;1.23;;;;;;;9.60;77.83;95203.56;4378111;32;20190;-57
2023/03/19 05:22:19;;;;;;;0.97;0.97;;;;;;;9.44;78.47;95210.97;4379506;32;20188;-57
2023/03/19 05:24:45;;;;;;;1.50;1.33;;;;;;;9.40;78.83;95215.25;4392950;32;20180;-57
2023/03/19 05:27:11;;;;;;;1.17;1.17;;;;;;;9.36;79.18;95218.78;4390130;32;20320;-57
2023/03/19 05:29:38;;;;;;;2.43;2.23;;;;;;;9.33;79.36;95222.81;4378680;32;20217;-57
2023/03/19 05:32:04;;;;;;;2.00;1.90;;;;;;;9.44;78.90;95221.56;4379796;32;20218;-57
2023/03/19 05:34:30;;;;;;;1.90;1.47;;;;;;;9.50;78.81;95222.28;4378507;32;20284;-57
2023/03/19 05:36:56;;;;;;;1.53;1.37;;;;;;;9.37;78.79;95223.78;4372444;32;20275;-57
2023/03/19 05:39:22;;;;;;;1.80;1.67;;;;;;;9.45;78.89;95233.72;4386447;32;20298;-57
2023/03/19 05:41:47;;;;;;;1.27;1.23;;;;;;;9.33;79.41;95236.03;4392977;32;20221;-57
2023/03/19 05:44:12;;;;;;;1.43;1.43;;;;;;;9.41;79.05;95231.94;4389545;32;20310;-57
2023/03/19 05:46:40;;;;;;;1.27;1.27;;;;;;;9.43;79.19;95235.88;4383997;32;20206;-57
2023/03/19 05:49:05;;;;;;;1.03;1.03;;;;;;;9.45;79.08;95238.25;4378315;32;20196;-57
2023/03/19 05:51:31;;;;;;;1.80;1.70;;;;;;;9.49;79.02;95247.97;4393007;32;20307;-57
2023/03/19 05:53:57;;;;;;;1.33;1.27;;;;;;;9.45;79.37;95248.81;4374222;32;20242;-57
2023/03/19 05:56:23;;;;;;;1.53;1.43;;;;;;;9.46;79.12;95250.41;4376408;32;20236;-58
2023/03/19 05:58:49;;;;;;;1.70;1.47;;;;;;;9.50;78.86;95254.06;4393149;32;20298;-57
2023/03/19 06:01:16;;;;;;;1.93;1.83;;;;;;;9.39;79.44;95253.41;4364617;32;20215;-57
2023/03/19 06:03:43;;;;;;;0.73;0.73;;;;;;;9.37;79.77;95257.41;4373879;32;20254;-57
2023/03/19 06:06:11;;;;;;;3.00;2.53;;;;;;;9.30;79.98;95255.13;4390498;32;20301;-57
2023/03/19 06:08:37;;;;;;;1.00;1.00;;;;;;;9.50;79.62;95268.09;4372939;32;20281;-57
2023/03/19 06:11:04;;;;;;;1.93;1.53;;;;;;;9.52;79.70;95265.94;4376150;32;20284;-58
2023/03/19 06:13:30;;;;;;;1.67;1.57;;;;;;;9.59;79.52;95265.56;4390269;32;20467;-57
2023/03/19 06:15:55;;;;;;;3.60;1.43;;;;;;;9.61;79.52;95274.78;4389802;32;20272;-56
2023/03/19 06:18:22;;;;;;;1.63;1.57;;;;;;;9.67;79.59;95280.03;4390482;32;20222;-58
2023/03/19 06:20:47;;;;;;;1.63;1.53;;;;;;;9.77;79.40;95290.47;4382636;32;20207;-57
2023/03/19 06:23:13;;;;;;;3.00;1.90;;;;;;;9.61;80.14;95295.19;4383509;32;20400;-55
2023/03/19 06:25:39;;;;;;;1.63;1.63;;;;;;;9.69;79.97;95293.75;4378420;32;20199;-57
2023/03/19 06:28:05;;;;;;;5.97;1.97;;;;;;;9.63;80.25;95293.84;4391646;32;20192;-57
2023/03/19 06:30:32;;;;;;;1.87;1.77;;;;;;;9.69;80.32;95293.75;4378582;32;20275;-57
2023/03/19 06:32:58;;;;;;;2.50;2.40;;;;;;;9.65;80.17;95296.97;4373425;32;20234;-57
2023/03/19 06:35:23;;;;;;;2.03;1.73;;;;;;;9.81;79.83;95304.69;4391104;32;20292;-57
2023/03/19 06:37:49;;;;;;;2.50;2.13;;;;;;;9.81;80.15;95310.00;4379598;32;20180;-57
2023/03/19 06:40:16;;;;;;;1.50;1.40;;;;;;;9.78;79.70;95314.00;4390439;32;20260;-57
2023/03/19 06:42:45;;;;;;;4.00;2.07;;;;;;;9.82;79.77;95322.94;4390796;32;20245;-57
2023/03/19 06:45:15;;;;;;;1.80;1.73;;;;;;;9.82;80.31;95324.81;4390264;32;20268;-56
2023/03/19 06:47:42;;;;;;;5.70;2.43;;;;;;;9.83;80.33;95323.75;4383026;32;20367;-57
2023/03/19 06:50:11;;;;;;;3.90;2.63;;;;;;;9.84;80.25;95328.75;4369623;32;20193;-57
2023/03/19 06:52:37;;;;;;;4.50;3.20;;;;;;;9.97;80.00;95335.19;4371466;32;20185;-57
2023/03/19 06:55:03;;;;;;;1.70;1.70;;;;;;;9.98;79.80;95329.59;4377548;32;20319;-57
2023/03/19 06:57:30;;;;;;;2.03;1.73;;;;;;;9.88;80.23;95326.31;4378482;32;20176;-57
2023/03/19 06:59:55;;;;;;;2.30;2.20;;;;;;;9.99;79.93;95338.31;4361400;32;20256;-57
2023/03/19 07:02:22;;;;;;;3.10;2.90;;;;;;;10.04;79.60;95332.97;4377109;32;20324;-57
2023/03/19 07:04:47;;;;;;;1.90;1.83;;;;;;;10.06;79.62;95338.75;4385515;32;20180;-55
2023/03/19 07:07:13;;;;;;;2.13;1.77;;;;;;;10.09;79.45;95346.13;4374821;32;22027;-57
2023/03/19 07:09:39;;;;;;;2.07;1.93;;;;;;;10.02;79.93;95347.56;4389991;32;20184;-57
2023/03/19 07:12:05;;;;;;;4.10;1.80;;;;;;;10.11;79.87;95354.59;4368682;32;20276;-57
2023/03/19 07:14:31;;;;;;;1.33;1.23;;;;;;;10.08;80.26;95352.50;4390225;32;20184;-56
2023/03/19 07:16:57;;;;;;;2.27;2.17;;;;;;;10.11;80.42;95357.25;4370188;32;20193;-58
2023/03/19 07:19:22;;;;;;;1.70;1.60;;;;;;;10.14;80.82;95363.81;4378836;32;20302;-57
2023/03/19 07:21:47;;;;;;;2.20;2.10;;;;;;;10.28;80.12;95373.44;4390191;32;20185;-57
2023/03/19 07:24:13;;;;;;;4.43;2.50;;;;;;;10.22;80.15;95379.88;4384933;32;20325;-58
2023/03/19 07:26:38;;;;;;;1.00;0.97;;;;;;;10.31;80.23;95382.66;4389746;32;20188;-57
2023/03/19 07:29:06;;;;;;;1.90;1.63;;;;;;;10.29;79.63;95390.91;4377321;32;20429;-57
2023/03/19 07:31:33;;;;;;;2.20;2.10;;;;;;;10.39;80.01;95400.59;4388050;32;20289;-57
2023/03/19 07:33:58;;;;;;;1.23;1.23;;;;;;;10.46;79.35;95400.97;4382871;32;20241;-57
2023/03/19 07:36:25;;;;;;;2.23;1.93;;;;;;;10.35;79.95;95399.59;4390933;32;20291;-57
2023/03/19 07:38:51;;;;;;;3.07;2.10;;;;;;;10.45;79.42;95404.72;4375056;32;20197;-57
2023/03/19 07:41:18;;;;;;;2.63;2.43;;;;;;;10.46;79.60;95406.28;4358879;32;20189;-57
2023/03/19 07:43:44;;;;;;;2.37;1.90;;;;;;;10.48;79.61;95406.78;4384632;32;20322;-57
2023/03/19 07:46:11;;;;;;;1.43;1.33;;;;;;;10.55;79.63;95414.38;4348780;32;20192;-57
2023/03/19 07:48:37;;;;;;;1.80;1.70;;;;;;;10.56;79.74;95411.44;4374519;32;20206;-57
2023/03/19 07:51:03;;;;;;;0.50;0.50;;;;;;;10.41;80.37;95426.78;4391468;32;20267;-57
2023/03/19 07:53:28;;;;;;;1.73;1.63;;;;;;;10.51;80.02;95419.47;4386073;32;20177;-57
2023/03/19 07:55:54;;;;;;;3.97;1.93;;;;;;;10.53;80.45;95419.97;4377397;32;20226;-56
2023/03/19 07:58:20;;;;;;;2.93;1.67;;;;;;;10.57;80.56;95425.50;4386467;32;20208;-58
2023/03/19 08:00:46;;;;;;;2.03;1.43;;;;;;;10.55;80.73;95422.34;4374716;32;20207;-58
2023/03/19 08:03:12;;;;;;;1.20;1.10;;;;;;;10.59;81.05;95421.47;4379062;32;20353;-57
2023/03/19 08:05:38;;;;;;;0.60;0.60;;;;;;;10.71;80.71;95418.34;4369170;32;20234;-57
2023/03/19 08:08:04;;;;;;;0.83;0.83;;;;;;;10.61;81.46;95418.50;4391739;32;20200;-57
2023/03/19 08:10:30;;;;;;;5.30;1.73;;;;;;;10.67;81.47;95431.41;4377529;32;20305;-57
2023/03/19 08:12:56;;;;;;;1.10;1.10;;;;;;;10.73;81.32;95421.50;4363849;32;20215;-57
2023/03/19 08:15:21;;;;;;;0.83;0.83;;;;;;;10.75;81.47;95419.34;4388022;32;20192;-56
2023/03/19 08:17:48;;;;;;;1.50;1.40;;;;;;;10.84;81.58;95422.88;4385371;32;20232;-57
2023/03/19 08:20:15;;;;;;;15.67;1.63;;;;;;;10.75;82.01;95422.00;4367546;32;20306;-56
2023/03/19 08:22:42;;;;;;;0.97;0.97;;;;;;;10.86;81.84;95423.38;4376608;32;20192;-57
2023/03/19 08:25:08;;;;;;;0.80;0.80;;;;;;;10.87;82.09;95427.63;4376835;32;20222;-57
2023/03/19 08:27:37;;;;;;;1.30;1.20;;;;;;;10.89;82.36;95425.47;4370568;32;20240;-57
2023/03/19 08:30:07;;;;;;;1.17;1.17;;;;;;;10.87;82.56;95421.53;4382070;32;20227;-56
2023/03/19 08:32:32;;;;;;;1.20;1.20;;;;;;;10.62;83.89;95422.72;4366910;32;20236;-57
2023/03/19 08:34:57;;;;;;;1.43;1.33;;;;;;;10.68;84.08;95426.88;4387857;32;20176;-57
2023/03/19 08:37:23;;;;;;;2.23;1.03;;;;;;;10.73;83.82;95421.50;4375606;32;20199;-57
2023/03/19 08:39:51;;;;;;;1.50;1.40;;;;;;;10.83;83.75;95421.31;4390180;32;20184;-57
2023/03/19 08:42:18;;;;;;;2.07;1.23;;;;;;;10.72;84.13;95422.56;4381891;32;20225;-57
2023/03/19 08:44:44;;;;;;;1.37;1.37;;;;;;;10.79;84.25;95430.16;4369326;32;20275;-57
2023/03/19 08:47:10;;;;;;;0.87;0.60;;;;;;;10.70;84.60;95432.69;4383769;32;20212;-58
2023/03/19 08:49:35;;;;;;;0.80;0.80;;;;;;;10.70;84.79;95435.34;4371264;32;20193;-56
2023/03/19 08:52:00;;;;;;;1.03;1.00;;;;;;;10.61;85.42;95445.03;4375970;32;20207;-56
2023/03/19 08:54:26;;;;;;;1.17;0.70;;;;;;;10.62;85.24;95444.75;4377136;32;20185;-57
2023/03/19 08:56:51;;;;;;;0.97;0.97;;;;;;;10.70;85.06;95445.97;4377387;32;20195;-56
2023/03/19 08:59:19;;;;;;;1.00;1.00;;;;;;;10.79;84.68;95456.72;4386255;32;20228;-57
2023/03/19 09:01:45;;;;;;;1.03;1.03;;;;;;;10.84;84.43;95445.97;4389510;32;20192;-57
2023/03/19 09:04:10;;;;;;;1.30;1.23;;;;;;;10.84;84.51;95454.72;4378589;32;20214;-57
2023/03/19 09:06:36;;;;;;;1.43;1.43;;;;;;;10.88;84.20;95447.78;4393131;32;20185;-57
2023/03/19 09:09:01;;;;;;;1.03;1.03;;;;;;;10.89;84.09;95449.34;4391990;32;20259;-57
2023/03/19 09:11:26;;;;;;;0.83;0.83;;;;;;;10.83;84.30;95452.38;4393882;32;20203;-56
2023/03/19 09:13:52;;;;;;;3.17;1.30;;;;;;;10.84;84.28;95446.78;4383189;32;20199;-56
2023/03/19 09:16:17;;;;;;;1.07;1.07;;;;;;;10.99;83.73;95451.84;4387838;32;20223;-57
2023/03/19 09:18:42;;;;;;;1.13;1.07;;;;;;;11.02;83.77;95459.19;4381939;32;20240;-57
2023/03/19 09:21:08;;;;;;;1.50;1.27;;;;;;;11.05;83.59;95457.03;4372440;32;20192;-57
2023/03/19 09:23:33;;;;;;;1.27;0.87;;;;;;;11.01;83.40;95464.81;4368629;32;20184;-57
2023/03/19 09:25:58;;;;;;;1.67;1.13;;;;;;;11.07;83.03;95460.97;4366972;32;20192;-57
2023/03/19 09:28:24;;;;;;;3.50;1.30;;;;;;;11.14;82.86;95461.41;4378337;32;20200;-56
2023/03/19 09:30:50;;;;;;;0.80;0.80;;;;;;;11.21;82.28;95464.47;4379657;32;20240;-57
2023/03/19 09:33:17;;;;;;;0.90;0.90;;;;;;;11.28;82.13;95464.06;4379627;32;20259;-57
2023/03/19 09:35:48;;;;;;;2.67;1.53;;;;;;;11.51;81.12;95463.09;4393174;32;20318;-57
2023/03/19 09:38:14;;;;;;;0.73;0.73;;;;;;;11.51;81.05;95468.41;4390256;32;20272;-57
2023/03/19 09:40:48;;;;;;;1.53;1.50;;;;;;;11.60;80.66;95473.84;4388830;32;20192;-56
2023/03/19 09:43:38;;;;;;;1.17;0.90;;;;;;;11.60;80.65;95473.84;4379414;32;20235;-46
2023/03/19 09:46:13;;;;;;;1.37;1.27;;;;;;;12.64;86.63;95478.28;4387417;32;20188;-47
2023/03/19 09:48:47;;;;;;;2.33;0.87;;;;;;;13.63;81.66;95472.59;4353032;32;20192;-48
2023/03/19 09:51:20;;;;;;;0.87;0.87;;;;;;;14.19;77.56;95479.00;4391057;32;20226;-45
2023/03/19 09:54:00;;;;;;;0.90;0.80;;;;;;;14.86;72.95;95485.81;4377859;32;20192;-45
2023/03/19 09:56:26;;;;;;;0.70;0.70;;;;;;;15.10;71.27;95492.22;4379074;32;20218;-45
2023/03/19 09:58:52;;;;;;;3.23;1.07;;;;;;;15.31;69.24;95488.87;4377185;32;20207;-46
2023/03/19 10:01:42;;;;;;;1.23;0.90;;;;;;;15.30;68.86;95488.09;4385084;32;20244;-48
2023/03/19 10:04:11;;;;;;;1.17;1.17;;;;;;;15.48;69.50;95486.13;4375947;32;20227;-49
2023/03/19 10:06:39;;;;;;;1.20;1.17;;;;;;;15.34;67.77;95483.69;4389748;32;20241;-47
2023/03/19 10:09:17;;;;;;;1.13;1.00;;;;;;;15.51;67.72;95482.03;4376905;32;20208;-49
2023/03/19 10:11:58;;;;;;;0.50;0.50;;;;;;;15.74;65.89;95481.50;4376578;32;20240;-57
2023/03/19 10:14:32;;;;;;;0.73;0.73;;;;;;;15.12;65.59;95478.53;4374676;32;20196;-57
2023/03/19 10:17:01;;;;;;;1.23;1.17;;;;;;;14.55;67.22;95486.00;4377239;32;20237;-57
2023/03/19 10:19:40;;;;;;;3.83;1.23;;;;;;;13.77;70.06;95475.91;4392750;32;20223;-57
2023/03/19 10:22:11;;;;;;;8.07;1.17;;;;;;;13.33;71.83;95481.37;4337999;32;20204;-57
2023/03/19 10:24:40;;;;;;;0.77;0.77;;;;;;;13.09;72.83;95477.16;4365019;32;20206;-57
2023/03/19 10:27:17;;;;;;;4.70;1.27;;;;;;;12.85;73.48;95470.59;4389576;32;20232;-57
2023/03/19 10:29:42;;;;;;;1.53;1.43;;;;;;;12.69;74.07;95460.28;4377293;32;20375;-57
2023/03/19 10:32:28;;;;;;;2.97;1.60;;;;;;;12.84;74.19;95477.81;4392753;32;20196;-58
2023/03/19 10:34:57;;;;;;;1.23;1.10;;;;;;;12.87;74.61;95466.56;4392572;32;20230;-57
2023/03/19 10:37:26;;;;;;;0.70;0.70;;;;;;;12.85;74.50;95470.59;4386458;32;20247;-57
2023/03/19 10:39:57;;;;;;;1.70;1.10;;;;;;;12.92;73.77;95469.06;4379262;32;20184;-57
2023/03/19 10:42:35;;;;;;;0.40;0.40;;;;;;;12.82;73.71;95473.87;4372001;32;20192;-57
2023/03/19 10:45:12;;;;;;;3.20;1.13;;;;;;;12.70;73.49;95471.72;4378440;32;20260;-56
2023/03/19 10:47:39;;;;;;;0.40;0.40;;;;;;;12.96;72.98;95477.25;4387719;32;20222;-57
2023/03/19 10:50:14;;;;;;;0.40;0.40;;;;;;;12.89;72.22;95475.00;4371988;32;20192;-57
2023/03/19 10:52:42;;;;;;;0.70;0.70;;;;;;;12.78;73.14;95478.22;4371290;32;20191;-57
2023/03/19 10:55:23;;;;;;;0.40;0.40;;;;;;;12.79;72.73;95483.25;4378664;32;20223;-56
2023/03/19 10:57:50;;;;;;;6.30;1.17;;;;;;;12.74;72.23;95473.50;4372950;32;20189;-57
2023/03/19 11:00:16;;;;;;;0.57;0.57;;;;;;;12.71;72.52;95467.97;4382990;32;20192;-57
2023/03/19 11:02:47;;;;;;;1.13;1.13;;;;;;;12.96;71.90;95464.72;4390426;32;20246;-57
2023/03/19 11:05:13;;;;;;;0.80;0.80;;;;;;;12.67;72.98;95464.38;4384760;32;20235;-57
2023/03/19 11:07:39;;;;;;;1.27;0.87;;;;;;;12.70;73.42;95461.88;4370788;32;20269;-56
2023/03/19 11:10:13;;;;;;;0.43;0.43;;;;;;;12.72;73.28;95459.69;4388670;32;20197;-57
2023/03/19 11:12:39;;;;;;;0.67;0.67;;;;;;;12.65;72.52;95453.25;4369682;32;20184;-57
2023/03/19 11:15:19;;;;;;;2.00;0.60;;;;;;;12.78;72.35;95452.38;4376655;32;20258;-56
2023/03/19 11:17:56;;;;;;;0.60;0.57;;;;;;;12.87;73.49;95445.25;4379797;32;20188;-57
2023/03/19 11:20:26;;;;;;;0.70;0.70;;;;;;;12.98;72.28;95459.88;4379145;32;20208;-57
2023/03/19 11:22:55;;;;;;;0.70;0.70;;;;;;;13.17;71.96;95449.03;4392010;32;20180;-57
2023/03/19 11:25:33;;;;;;;0.50;0.50;;;;;;;13.08;70.78;95454.28;4378319;32;20184;-53
2023/03/19 11:28:06;;;;;;;1.70;1.60;;;;;;;13.22;70.83;95448.13;4386263;32;20223;-57
2023/03/19 11:30:56;;;;;;;1.07;0.57;;;;;;;13.34;70.21;95448.31;4390054;32;20226;-57
2023/03/19 11:33:46;;;;;;;0.70;0.70;;;;;;;13.34;70.63;95450.97;4371329;32;20229;-57
2023/03/19 11:36:23;;;;;;;1.27;0.70;;;;;;;13.38;70.21;95443.94;4377452;32;20188;-57
2023/03/19 11:39:02;;;;;;;0.57;0.57;;;;;;;13.34;70.48;95441.09;4370553;32;20180;-57